Terminal Aerodrome Forecast
Issued by NWS Paducah, KY

Home | Current Version | Previous Version | Text Only | Print | Product List | Glossary On
Versions: 1 2 3 4 5 6 7 8 9 10 11 12 13 14 15 16 17 18 19 20 21 22 23
000
FTUS43 KPAH 300413 AAB
TAFPAH
TAF AMD
KPAH 300413Z 3004/3024 25005KT 2SM TSRA BR SCT035CB OVC050
     FM300600 17014G22KT 6SM -RA OVC090
     FM301400 17016G24KT 3SM TSRA BKN006CB OVC025
     FM302000 19017G27KT 6SM -SHRA SCT006 BKN025=

USA.gov is the U.S. government's official web portal to all federal, state and local government web resources and services.